Time;durP1;ratioP1;P1;durP2;ratioP2;P2;SDS_P1;SDS_P2;PMS_P1;PMS_P2;Temp;Humidity;BMP_temperature;BMP_pressure;BME280_temperature;BME280_humidity;BME280_pressure;Samples;Min_cycle;Max_cycle;Signal;HPM_P1;HPM_P2
2024/01/22 00:01:42;;;;;;;1.63;0.80;;;20.90;33.90;;;;;;5111271;28;20063;-58
2024/01/22 00:04:08;;;;;;;1.42;0.60;;;20.80;33.90;;;;;;5113768;28;20055;-58
2024/01/22 00:06:39;;;;;;;1.50;0.57;;;20.80;33.90;;;;;;5094511;28;20035;-58
2024/01/22 00:09:05;;;;;;;1.70;0.80;;;20.80;34.00;;;;;;5113411;28;20039;-60
2024/01/22 00:11:31;;;;;;;0.63;0.60;;;20.80;34.00;;;;;;5112038;28;20106;-59
2024/01/22 00:13:58;;;;;;;1.58;0.70;;;20.80;34.00;;;;;;5113913;28;20020;-56
2024/01/22 00:16:25;;;;;;;1.23;0.60;;;20.80;34.10;;;;;;5113367;28;20027;-57
2024/01/22 00:18:50;;;;;;;1.52;0.73;;;20.80;34.10;;;;;;5095004;28;20363;-58
2024/01/22 00:21:16;;;;;;;0.80;0.50;;;20.80;34.20;;;;;;5109959;28;20020;-57
2024/01/22 00:23:42;;;;;;;1.95;0.60;;;20.80;34.20;;;;;;5113781;28;20046;-57
2024/01/22 00:26:13;;;;;;;1.67;0.70;;;20.80;34.30;;;;;;5112670;28;20023;-56
2024/01/22 00:28:40;;;;;;;1.35;0.73;;;20.80;34.30;;;;;;5113219;28;20019;-57
2024/01/22 00:31:06;;;;;;;1.35;0.70;;;20.70;34.30;;;;;;5113419;28;20050;-56
2024/01/22 00:33:32;;;;;;;1.80;0.70;;;20.80;34.40;;;;;;5113663;28;20053;-55
2024/01/22 00:35:58;;;;;;;1.77;0.90;;;20.70;34.40;;;;;;5113987;28;20468;-57
2024/01/22 00:38:24;;;;;;;1.30;0.60;;;20.70;34.40;;;;;;5113352;28;20120;-55
2024/01/22 00:40:49;;;;;;;1.50;0.80;;;20.70;34.50;;;;;;5095380;28;20050;-57
2024/01/22 00:43:15;;;;;;;1.02;0.70;;;20.70;34.50;;;;;;5113194;28;20027;-57
2024/01/22 00:45:41;;;;;;;1.30;0.60;;;20.70;34.50;;;;;;5113233;28;20089;-56
2024/01/22 00:48:07;;;;;;;1.45;0.85;;;20.70;34.50;;;;;;5113166;28;20031;-58
2024/01/22 00:50:33;;;;;;;1.45;0.70;;;20.60;34.50;;;;;;5113254;28;20028;-58
2024/01/22 00:52:59;;;;;;;0.98;0.70;;;20.60;34.50;;;;;;5113584;28;20084;-56
2024/01/22 00:55:24;;;;;;;1.27;0.68;;;20.60;34.60;;;;;;5113413;28;20051;-58
2024/01/22 00:57:50;;;;;;;0.98;0.70;;;20.60;34.60;;;;;;5112577;28;20364;-57
2024/01/22 01:00:16;;;;;;;2.08;0.57;;;20.60;34.70;;;;;;5113211;28;20019;-58
2024/01/22 01:02:43;;;;;;;0.70;0.57;;;20.60;34.70;;;;;;5113223;28;20076;-56
2024/01/22 01:05:08;;;;;;;1.05;0.60;;;20.60;34.70;;;;;;5113361;28;20093;-57
2024/01/22 01:07:35;;;;;;;0.85;0.70;;;20.60;34.80;;;;;;5112694;28;20023;-58
2024/01/22 01:10:02;;;;;;;0.75;0.50;;;20.50;35.10;;;;;;5113475;28;20107;-57
2024/01/22 01:12:27;;;;;;;1.27;0.50;;;20.50;34.80;;;;;;5113530;28;20461;-58
2024/01/22 01:14:53;;;;;;;1.92;0.60;;;20.50;34.90;;;;;;5112669;28;20051;-57
2024/01/22 01:17:19;;;;;;;0.88;0.55;;;20.50;34.90;;;;;;5111534;28;20454;-57
2024/01/22 01:19:45;;;;;;;0.85;0.52;;;20.50;35.00;;;;;;5113385;28;20031;-56
2024/01/22 01:22:11;;;;;;;1.05;0.70;;;20.40;35.00;;;;;;5095515;28;20031;-56
2024/01/22 01:24:38;;;;;;;1.25;0.70;;;20.40;35.00;;;;;;5113310;28;20487;-57
2024/01/22 01:27:04;;;;;;;0.80;0.60;;;20.40;35.10;;;;;;5113435;28;20024;-57
2024/01/22 01:29:30;;;;;;;1.30;0.50;;;20.40;35.10;;;;;;5113207;28;20035;-57
2024/01/22 01:31:55;;;;;;;1.27;0.57;;;20.40;35.20;;;;;;5112806;28;20031;-57
2024/01/22 01:34:21;;;;;;;1.05;0.50;;;20.40;35.20;;;;;;5113020;28;20110;-57
2024/01/22 01:36:47;;;;;;;0.45;0.40;;;20.40;35.20;;;;;;5112904;28;20360;-58
2024/01/22 01:39:13;;;;;;;1.90;0.80;;;20.30;35.20;;;;;;5113320;28;20034;-56
2024/01/22 01:41:39;;;;;;;1.63;0.60;;;20.30;35.30;;;;;;5112001;28;20067;-56
2024/01/22 01:44:04;;;;;;;1.05;0.57;;;20.40;35.40;;;;;;5113059;28;20112;-55
2024/01/22 01:46:30;;;;;;;1.27;0.60;;;20.30;35.40;;;;;;5113112;28;20116;-58
2024/01/22 01:48:57;;;;;;;1.50;0.65;;;20.30;35.40;;;;;;5112864;28;20024;-58
2024/01/22 01:51:24;;;;;;;0.82;0.60;;;20.30;35.40;;;;;;5112655;28;20028;-57
2024/01/22 01:53:51;;;;;;;0.52;0.43;;;20.30;35.50;;;;;;5110397;28;20027;-56
2024/01/22 01:56:17;;;;;;;0.77;0.50;;;20.30;35.60;;;;;;5112974;28;20028;-56
2024/01/22 01:58:43;;;;;;;0.70;0.50;;;20.30;35.60;;;;;;5095095;28;20031;-55
2024/01/22 02:01:09;;;;;;;0.93;0.45;;;20.30;35.70;;;;;;5112368;28;20035;-58
2024/01/22 02:03:35;;;;;;;0.55;0.43;;;20.30;35.70;;;;;;5112187;28;20101;-57
2024/01/22 02:06:01;;;;;;;1.85;0.60;;;20.20;35.70;;;;;;5112258;28;20024;-55
2024/01/22 02:08:27;;;;;;;1.30;0.60;;;20.30;35.80;;;;;;5094715;28;20035;-56
2024/01/22 02:10:53;;;;;;;0.50;0.40;;;20.20;35.80;;;;;;5115868;28;20450;-59
2024/01/22 02:13:19;;;;;;;0.80;0.45;;;20.20;35.80;;;;;;5116061;28;20020;-57
2024/01/22 02:15:44;;;;;;;0.80;0.50;;;20.20;35.90;;;;;;5116293;28;20084;-55
2024/01/22 02:18:10;;;;;;;1.00;0.50;;;20.20;35.90;;;;;;5097057;28;20028;-58
2024/01/22 02:20:36;;;;;;;0.80;0.50;;;20.20;36.00;;;;;;5116660;28;20031;-57
2024/01/22 02:23:06;;;;;;;0.77;0.30;;;20.10;36.00;;;;;;5112197;27;20055;-60
2024/01/22 02:25:32;;;;;;;1.05;0.55;;;20.20;36.10;;;;;;5116550;28;20346;-57
2024/01/22 02:27:58;;;;;;;0.85;0.50;;;20.10;36.00;;;;;;5115594;28;20030;-57
2024/01/22 02:30:24;;;;;;;1.20;0.60;;;20.10;36.10;;;;;;5116031;28;20107;-57
2024/01/22 02:32:50;;;;;;;1.00;0.40;;;20.10;36.10;;;;;;5114782;28;20020;-56
2024/01/22 02:35:17;;;;;;;0.60;0.45;;;20.10;36.20;;;;;;5097999;28;20027;-56
2024/01/22 02:37:43;;;;;;;0.47;0.47;;;20.10;36.20;;;;;;5115362;28;20031;-58
2024/01/22 02:40:09;;;;;;;0.60;0.40;;;20.10;36.20;;;;;;5115628;28;20071;-55
2024/01/22 02:42:35;;;;;;;0.60;0.47;;;20.10;36.30;;;;;;5111724;28;20031;-54
2024/01/22 02:45:02;;;;;;;1.02;0.50;;;20.10;36.40;;;;;;5114597;28;20136;-57
2024/01/22 02:47:28;;;;;;;0.95;0.40;;;20.10;36.40;;;;;;5115788;28;20024;-55
2024/01/22 02:49:53;;;;;;;0.52;0.40;;;20.10;36.50;;;;;;5115322;28;20035;-55
2024/01/22 02:52:19;;;;;;;1.00;0.50;;;20.10;36.50;;;;;;5114966;28;20407;-57
2024/01/22 02:54:45;;;;;;;0.95;0.60;;;20.10;36.60;;;;;;5096846;28;20027;-58
2024/01/22 02:57:11;;;;;;;0.52;0.45;;;20.00;36.60;;;;;;5114686;28;20338;-58
2024/01/22 02:59:37;;;;;;;1.42;0.45;;;20.10;36.70;;;;;;5096783;28;20031;-58
2024/01/22 03:02:04;;;;;;;1.27;0.70;;;20.10;36.80;;;;;;5114886;28;20027;-58
2024/01/22 03:04:29;;;;;;;1.50;0.40;;;20.00;36.80;;;;;;5115106;28;20343;-59
2024/01/22 03:06:56;;;;;;;0.85;0.50;;;20.00;36.80;;;;;;5114739;28;20045;-57
2024/01/22 03:09:22;;;;;;;0.35;0.30;;;20.00;36.90;;;;;;5114778;28;20072;-57
2024/01/22 03:11:48;;;;;;;0.82;0.28;;;20.00;37.00;;;;;;5115322;28;20039;-57
2024/01/22 03:14:14;;;;;;;0.20;0.20;;;20.00;37.00;;;;;;5114854;28;20020;-57
2024/01/22 03:16:39;;;;;;;0.38;0.35;;;20.00;37.10;;;;;;5114795;28;20051;-57
2024/01/22 03:19:05;;;;;;;0.32;0.30;;;20.00;37.20;;;;;;5113225;28;20030;-58
2024/01/22 03:21:31;;;;;;;1.35;0.68;;;19.90;37.20;;;;;;5115037;28;20028;-56
2024/01/22 03:23:57;;;;;;;1.00;0.40;;;20.00;37.30;;;;;;5114711;28;20043;-60
2024/01/22 03:26:23;;;;;;;0.30;0.30;;;20.00;37.40;;;;;;5114934;28;20393;-55
2024/01/22 03:28:53;;;;;;;0.73;0.40;;;20.00;37.50;;;;;;5114476;28;20016;-57
2024/01/22 03:31:26;;;;;;;1.00;0.40;;;20.00;37.50;;;;;;5096383;28;20339;-55
2024/01/22 03:33:53;;;;;;;0.40;0.30;;;20.00;37.60;;;;;;5114701;28;20027;-57
2024/01/22 03:36:20;;;;;;;0.70;0.35;;;20.00;37.60;;;;;;5114709;28;20028;-56
2024/01/22 03:38:46;;;;;;;0.57;0.50;;;20.00;37.70;;;;;;5113958;28;20034;-58
2024/01/22 03:41:12;;;;;;;0.65;0.40;;;19.90;37.70;;;;;;5114411;28;20648;-57
2024/01/22 03:43:38;;;;;;;0.75;0.30;;;19.90;37.80;;;;;;5114530;28;20024;-58
2024/01/22 03:46:04;;;;;;;0.75;0.40;;;19.90;37.80;;;;;;5114766;28;20354;-58
2024/01/22 03:48:30;;;;;;;1.20;0.57;;;19.90;37.90;;;;;;5114535;28;20042;-57
2024/01/22 03:50:56;;;;;;;0.40;0.38;;;19.90;37.90;;;;;;5114309;28;20020;-57
2024/01/22 03:53:21;;;;;;;0.57;0.50;;;19.90;38.00;;;;;;5114501;28;20115;-57
2024/01/22 03:55:47;;;;;;;1.13;0.40;;;19.90;38.10;;;;;;5114310;28;20054;-58
2024/01/22 03:58:13;;;;;;;0.30;0.20;;;19.90;38.10;;;;;;5095944;28;20046;-58
2024/01/22 04:00:39;;;;;;;0.75;0.40;;;19.90;38.20;;;;;;5113216;28;20020;-54
2024/01/22 04:03:05;;;;;;;0.40;0.30;;;19.90;38.30;;;;;;5114367;28;20062;-56
2024/01/22 04:05:31;;;;;;;0.40;0.30;;;19.90;38.40;;;;;;5113411;28;20039;-58
2024/01/22 04:07:57;;;;;;;1.45;0.30;;;19.90;38.40;;;;;;5112284;28;20421;-59
2024/01/22 04:10:24;;;;;;;1.15;0.30;;;19.90;38.50;;;;;;5093480;28;20027;-59
2024/01/22 04:12:50;;;;;;;1.60;0.25;;;19.90;38.60;;;;;;5114563;28;20019;-57
2024/01/22 04:15:16;;;;;;;0.82;0.30;;;19.90;38.70;;;;;;5114167;28;20019;-56
2024/01/22 04:17:42;;;;;;;0.40;0.30;;;19.80;38.70;;;;;;5113380;28;20047;-60
2024/01/22 04:20:09;;;;;;;0.30;0.30;;;19.80;38.70;;;;;;5111134;28;20095;-57
2024/01/22 04:22:34;;;;;;;0.77;0.40;;;19.80;38.80;;;;;;5111653;28;20028;-57
2024/01/22 04:25:00;;;;;;;0.47;0.30;;;19.80;38.90;;;;;;5112900;28;20343;-57
2024/01/22 04:27:26;;;;;;;0.50;0.40;;;19.80;39.00;;;;;;5113028;28;20039;-55
2024/01/22 04:29:52;;;;;;;0.88;0.30;;;19.80;39.10;;;;;;5112733;28;20352;-57
2024/01/22 04:32:17;;;;;;;0.43;0.30;;;19.80;39.10;;;;;;5112854;28;20019;-57
2024/01/22 04:34:43;;;;;;;0.40;0.30;;;19.80;39.20;;;;;;5112740;28;20019;-58
2024/01/22 04:37:09;;;;;;;0.50;0.30;;;19.80;39.30;;;;;;5112752;28;20279;-54
2024/01/22 04:39:36;;;;;;;1.40;0.50;;;19.80;39.30;;;;;;5112385;28;20355;-57
2024/01/22 04:42:02;;;;;;;0.43;0.35;;;19.80;39.40;;;;;;5112436;28;20424;-58
2024/01/22 04:44:28;;;;;;;0.98;0.40;;;19.80;39.50;;;;;;5113065;28;20035;-56
2024/01/22 04:46:58;;;;;;;0.82;0.32;;;19.80;39.50;;;;;;5113264;28;20027;-57
2024/01/22 04:49:24;;;;;;;0.35;0.22;;;19.80;39.60;;;;;;5113039;28;20088;-57
2024/01/22 04:51:49;;;;;;;0.90;0.40;;;19.80;39.60;;;;;;5112919;28;20422;-53
2024/01/22 04:54:15;;;;;;;0.40;0.20;;;19.80;39.70;;;;;;5112506;28;20030;-57
2024/01/22 04:56:44;;;;;;;0.60;0.40;;;19.80;39.80;;;;;;5113020;28;20028;-56
2024/01/22 04:59:09;;;;;;;0.38;0.30;;;19.80;40.50;;;;;;5112982;28;20103;-57
2024/01/22 05:01:36;;;;;;;1.23;0.47;;;19.80;39.90;;;;;;5112721;28;20035;-57
2024/01/22 05:04:02;;;;;;;0.73;0.30;;;19.80;40.00;;;;;;5112938;28;20036;-56
2024/01/22 05:06:28;;;;;;;0.30;0.20;;;19.80;40.10;;;;;;5112638;28;20039;-55
2024/01/22 05:08:54;;;;;;;0.40;0.30;;;19.80;40.10;;;;;;5110701;28;20032;-58
2024/01/22 05:11:19;;;;;;;0.52;0.25;;;19.70;40.20;;;;;;5111744;28;20098;-53
2024/01/22 05:13:53;;;;;;;1.20;0.20;;;19.70;40.20;;;;;;5113085;28;20442;-57
2024/01/22 05:16:20;;;;;;;0.40;0.22;;;19.70;40.30;;;;;;5112686;28;20031;-57
2024/01/22 05:18:47;;;;;;;0.30;0.20;;;19.80;40.40;;;;;;5112329;28;20028;-55
2024/01/22 05:21:13;;;;;;;0.45;0.25;;;19.70;40.40;;;;;;5112131;28;20103;-56
2024/01/22 05:23:40;;;;;;;1.13;0.22;;;19.70;40.50;;;;;;5111333;28;20027;-56
2024/01/22 05:26:06;;;;;;;1.05;0.32;;;19.70;40.50;;;;;;5112517;28;20051;-57
2024/01/22 05:28:32;;;;;;;0.57;0.30;;;19.70;40.60;;;;;;5112833;28;20346;-55
2024/01/22 05:30:59;;;;;;;0.30;0.20;;;19.70;40.70;;;;;;5112214;28;20350;-58
2024/01/22 05:33:25;;;;;;;0.38;0.30;;;19.70;40.70;;;;;;5112667;28;20020;-55
2024/01/22 05:35:50;;;;;;;0.47;0.22;;;19.70;40.80;;;;;;5112356;28;20358;-55
2024/01/22 05:38:16;;;;;;;0.30;0.25;;;19.70;40.80;;;;;;5112142;28;20069;-55
2024/01/22 05:40:42;;;;;;;0.90;0.30;;;19.70;40.90;;;;;;5112125;28;20040;-58
2024/01/22 05:43:08;;;;;;;0.38;0.20;;;19.70;40.90;;;;;;5112012;28;20613;-55
2024/01/22 05:45:34;;;;;;;0.57;0.20;;;19.70;41.00;;;;;;5114063;28;20039;-57
2024/01/22 05:47:59;;;;;;;0.77;0.20;;;19.70;41.00;;;;;;5116510;28;20596;-56
2024/01/22 05:50:25;;;;;;;0.63;0.30;;;19.70;41.10;;;;;;5115868;28;20034;-56
2024/01/22 05:52:51;;;;;;;0.60;0.20;;;19.70;41.10;;;;;;5115836;28;20028;-56
2024/01/22 05:55:17;;;;;;;0.30;0.20;;;19.70;41.20;;;;;;5097539;28;20070;-55
2024/01/22 05:57:42;;;;;;;0.55;0.30;;;19.70;41.30;;;;;;5116421;28;20400;-58
2024/01/22 06:00:09;;;;;;;0.63;0.32;;;19.70;41.30;;;;;;5115713;28;20031;-56
2024/01/22 06:02:38;;;;;;;0.20;0.20;;;19.70;41.40;;;;;;5115185;28;20048;-55
2024/01/22 06:05:04;;;;;;;0.30;0.20;;;19.60;41.40;;;;;;5115700;28;20130;-57
2024/01/22 06:07:30;;;;;;;0.60;0.30;;;19.60;41.50;;;;;;5115910;28;20031;-57
2024/01/22 06:09:56;;;;;;;0.75;0.30;;;19.60;41.50;;;;;;5115611;28;20020;-56
2024/01/22 06:12:22;;;;;;;0.28;0.20;;;19.60;41.60;;;;;;5116061;28;20129;-60
2024/01/22 06:14:47;;;;;;;0.98;0.20;;;19.60;42.30;;;;;;5115174;28;20031;-55
2024/01/22 06:17:14;;;;;;;0.30;0.20;;;19.60;41.70;;;;;;5115727;28;20395;-54
2024/01/22 06:19:39;;;;;;;0.57;0.35;;;19.60;41.70;;;;;;5115945;28;20125;-55
2024/01/22 06:22:05;;;;;;;0.10;0.10;;;19.60;41.80;;;;;;5115672;28;20024;-58
2024/01/22 06:24:34;;;;;;;1.98;0.05;;;19.60;41.80;;;;;;5111785;28;20035;-57
2024/01/22 06:27:00;;;;;;;0.20;0.10;;;19.60;41.90;;;;;;5115787;28;20100;-56
2024/01/22 06:29:26;;;;;;;0.60;0.20;;;19.60;41.90;;;;;;5116208;28;20058;-54
2024/01/22 06:31:52;;;;;;;0.55;0.13;;;19.60;42.00;;;;;;5115011;28;20183;-57
2024/01/22 06:34:17;;;;;;;0.30;0.20;;;19.60;42.00;;;;;;5115590;28;20023;-55
2024/01/22 06:36:43;;;;;;;0.47;0.10;;;19.60;42.10;;;;;;5115212;28;20479;-53
2024/01/22 06:39:09;;;;;;;0.47;0.20;;;19.60;42.10;;;;;;5116008;28;20147;-56
2024/01/22 06:41:35;;;;;;;0.25;0.20;;;19.60;42.20;;;;;;5115285;28;20054;-55
2024/01/22 06:44:01;;;;;;;0.57;0.20;;;19.60;42.20;;;;;;5115284;28;20046;-54
2024/01/22 06:46:27;;;;;;;0.47;0.20;;;19.60;42.30;;;;;;5114783;28;20016;-55
2024/01/22 06:48:53;;;;;;;0.40;0.20;;;19.60;42.40;;;;;;5115444;28;20038;-55
2024/01/22 06:51:18;;;;;;;0.30;0.22;;;19.60;42.40;;;;;;5096594;28;20038;-56
2024/01/22 06:53:44;;;;;;;0.55;0.30;;;19.60;42.50;;;;;;5097567;28;20119;-58
2024/01/22 06:56:10;;;;;;;1.27;0.35;;;19.60;42.60;;;;;;5111755;28;20404;-55
2024/01/22 06:58:36;;;;;;;0.22;0.20;;;19.60;42.60;;;;;;5115059;28;20046;-56
2024/01/22 07:01:04;;;;;;;0.60;0.20;;;19.60;42.60;;;;;;5112303;28;20043;-55
2024/01/22 07:03:30;;;;;;;0.60;0.20;;;19.60;42.70;;;;;;5114975;28;20455;-57
2024/01/22 07:05:56;;;;;;;0.32;0.10;;;19.60;42.70;;;;;;5114605;28;20031;-55
2024/01/22 07:08:22;;;;;;;0.30;0.20;;;19.60;42.80;;;;;;5115063;28;20091;-56
2024/01/22 07:10:51;;;;;;;0.35;0.30;;;19.60;42.90;;;;;;5114353;28;20019;-57
2024/01/22 07:13:16;;;;;;;0.32;0.20;;;19.60;42.90;;;;;;5114121;28;20077;-56
2024/01/22 07:15:42;;;;;;;0.20;0.10;;;19.60;43.00;;;;;;5114875;28;20353;-57
2024/01/22 07:18:08;;;;;;;0.30;0.30;;;19.60;43.00;;;;;;5114323;28;20050;-57
2024/01/22 07:20:34;;;;;;;1.27;0.32;;;19.60;43.00;;;;;;5115146;28;20442;-57
2024/01/22 07:23:00;;;;;;;0.75;0.35;;;19.60;43.10;;;;;;5114389;28;20111;-56
2024/01/22 07:25:27;;;;;;;0.77;0.30;;;19.60;43.10;;;;;;5114610;28;20035;-57
2024/01/22 07:27:52;;;;;;;0.35;0.17;;;19.60;43.20;;;;;;5114765;28;20038;-55
2024/01/22 07:30:18;;;;;;;0.40;0.22;;;19.60;43.20;;;;;;5115053;28;20490;-56
2024/01/22 07:32:44;;;;;;;0.98;0.30;;;19.60;43.20;;;;;;5113707;28;20038;-59
2024/01/22 07:35:13;;;;;;;0.30;0.20;;;19.60;43.20;;;;;;5114075;28;20023;-56
2024/01/22 07:37:42;;;;;;;0.93;0.43;;;19.60;43.20;;;;;;5114232;28;20111;-58
2024/01/22 07:40:11;;;;;;;1.08;0.30;;;19.60;43.20;;;;;;5114067;28;20459;-57
2024/01/22 07:42:38;;;;;;;0.77;0.20;;;19.60;43.20;;;;;;5095956;28;20031;-56
2024/01/22 07:45:06;;;;;;;1.05;0.40;;;19.60;43.30;;;;;;5113561;28;20043;-55
2024/01/22 07:47:33;;;;;;;1.95;0.50;;;19.60;43.20;;;;;;5113723;28;20059;-55
2024/01/22 07:49:59;;;;;;;0.93;0.35;;;19.60;43.20;;;;;;5113631;28;20036;-57
2024/01/22 07:52:25;;;;;;;2.17;0.43;;;19.60;43.20;;;;;;5114167;28;20035;-58
2024/01/22 07:54:51;;;;;;;1.33;0.40;;;19.60;43.30;;;;;;5114007;28;20039;-57
2024/01/22 07:57:17;;;;;;;2.03;0.40;;;19.60;43.30;;;;;;5094386;28;20038;-60
2024/01/22 07:59:43;;;;;;;2.33;0.60;;;19.60;43.30;;;;;;5114335;27;20027;-55
2024/01/22 08:02:09;;;;;;;2.10;0.50;;;19.60;43.30;;;;;;5095887;28;20340;-57
2024/01/22 08:04:36;;;;;;;0.93;0.30;;;19.60;43.30;;;;;;5094914;28;20049;-56
2024/01/22 08:07:03;;;;;;;0.50;0.20;;;19.60;43.40;;;;;;5110571;28;20035;-56
2024/01/22 08:09:30;;;;;;;3.20;0.30;;;19.60;44.00;;;;;;5113742;28;20019;-56
2024/01/22 08:11:56;;;;;;;1.88;0.60;;;19.60;43.50;;;;;;5113417;28;20053;-52
2024/01/22 08:14:22;;;;;;;1.83;0.30;;;19.60;43.40;;;;;;5112844;28;20418;-54
2024/01/22 08:16:49;;;;;;;0.43;0.38;;;19.60;43.50;;;;;;5113230;28;20019;-55
2024/01/22 08:19:16;;;;;;;0.93;0.43;;;19.50;43.50;;;;;;5114142;28;20024;-55
2024/01/22 08:21:41;;;;;;;1.33;0.38;;;19.60;43.60;;;;;;5113340;28;20031;-56
2024/01/22 08:24:07;;;;;;;2.17;0.43;;;19.60;43.70;;;;;;5095783;28;20100;-53
2024/01/22 08:26:33;;;;;;;1.52;0.40;;;19.60;43.70;;;;;;5113271;28;20035;-53
2024/01/22 08:28:59;;;;;;;1.50;0.60;;;19.60;43.80;;;;;;5113579;28;20034;-57
2024/01/22 08:31:24;;;;;;;2.45;0.60;;;19.60;43.80;;;;;;5113302;28;20030;-57
2024/01/22 08:33:50;;;;;;;2.40;0.65;;;19.60;44.00;;;;;;5113103;28;20153;-57
2024/01/22 08:36:16;;;;;;;0.63;0.35;;;19.60;44.10;;;;;;5113065;28;20023;-56
2024/01/22 08:38:42;;;;;;;1.83;0.73;;;19.60;44.10;;;;;;5113275;28;20463;-55
2024/01/22 08:41:10;;;;;;;1.38;0.60;;;19.70;44.20;;;;;;5112704;28;20164;-57
2024/01/22 08:43:36;;;;;;;1.83;0.80;;;19.70;44.30;;;;;;5095162;28;20037;-56
2024/01/22 08:46:02;;;;;;;1.58;0.70;;;19.80;44.30;;;;;;5112344;28;20454;-57
2024/01/22 08:48:30;;;;;;;1.08;0.47;;;19.80;44.30;;;;;;5112713;28;20028;-58
2024/01/22 08:50:57;;;;;;;1.75;0.60;;;19.90;44.20;;;;;;5113147;28;20059;-60
2024/01/22 08:53:23;;;;;;;1.33;0.40;;;20.00;44.20;;;;;;5110681;28;20035;-57
2024/01/22 08:55:49;;;;;;;1.70;0.65;;;20.00;44.10;;;;;;5112542;28;20038;-57
2024/01/22 08:58:15;;;;;;;1.45;0.60;;;20.10;44.10;;;;;;5112828;28;20024;-55
2024/01/22 09:00:41;;;;;;;1.05;0.50;;;20.20;44.00;;;;;;5094511;28;21211;-59
2024/01/22 09:03:07;;;;;;;1.02;0.60;;;20.30;43.90;;;;;;5094649;28;20083;-56
2024/01/22 09:05:34;;;;;;;1.30;0.50;;;20.30;43.80;;;;;;5094776;28;20408;-55
2024/01/22 09:08:00;;;;;;;1.30;0.70;;;20.40;43.70;;;;;;5112946;28;20073;-57
2024/01/22 09:10:26;;;;;;;1.60;0.60;;;20.50;43.60;;;;;;5108576;28;20027;-55
2024/01/22 09:12:55;;;;;;;1.58;0.47;;;20.50;43.40;;;;;;5113830;28;20419;-57
2024/01/22 09:15:21;;;;;;;1.92;0.85;;;20.60;43.30;;;;;;5096190;28;20024;-58
2024/01/22 09:17:47;;;;;;;1.67;0.70;;;20.70;43.20;;;;;;5108991;28;20564;-58
2024/01/22 09:20:14;;;;;;;2.13;0.70;;;20.80;43.10;;;;;;5111105;27;20100;-57
2024/01/22 09:22:40;;;;;;;1.75;0.70;;;20.80;42.90;;;;;;5112618;28;20032;-57
2024/01/22 09:25:07;;;;;;;1.58;0.65;;;20.90;42.90;;;;;;5093733;28;20357;-57
2024/01/22 09:27:33;;;;;;;2.15;0.80;;;21.00;42.80;;;;;;5116913;28;20020;-57
2024/01/22 09:29:59;;;;;;;2.03;1.00;;;21.10;42.70;;;;;;5117506;28;20027;-55
2024/01/22 09:32:25;;;;;;;2.85;0.70;;;21.10;42.50;;;;;;5117959;28;20172;-58
2024/01/22 09:34:51;;;;;;;1.67;0.50;;;21.20;42.50;;;;;;5117487;28;20031;-57
2024/01/22 09:37:17;;;;;;;3.25;0.73;;;21.20;42.40;;;;;;5117266;28;20027;-57
2024/01/22 09:39:44;;;;;;;1.85;0.68;;;21.30;42.40;;;;;;5117346;28;20020;-57
2024/01/22 09:42:14;;;;;;;2.30;0.85;;;21.30;42.30;;;;;;5117553;28;20019;-58
2024/01/22 09:44:41;;;;;;;2.53;0.80;;;21.40;42.30;;;;;;5116999;28;20478;-58
2024/01/22 09:47:09;;;;;;;2.42;0.52;;;21.40;42.20;;;;;;5117720;28;20035;-57
2024/01/22 09:49:36;;;;;;;2.05;0.70;;;21.50;42.20;;;;;;5117692;28;20106;-58
2024/01/22 09:52:03;;;;;;;1.30;0.60;;;21.60;42.20;;;;;;5116250;28;20401;-59
2024/01/22 09:54:30;;;;;;;1.35;0.60;;;21.60;42.70;;;;;;5114914;28;20126;-59
2024/01/22 09:56:57;;;;;;;1.92;0.80;;;21.60;41.90;;;;;;5116448;28;20046;-56
2024/01/22 09:59:28;;;;;;;2.20;0.90;;;21.70;41.80;;;;;;5117513;28;20023;-57
2024/01/22 10:01:54;;;;;;;2.03;0.68;;;21.70;41.70;;;;;;5117164;28;20020;-57
2024/01/22 10:04:23;;;;;;;2.58;0.80;;;21.80;41.50;;;;;;5117285;28;20184;-57
2024/01/22 10:06:50;;;;;;;1.38;0.55;;;21.80;41.40;;;;;;5098839;28;20020;-60
2024/01/22 10:09:17;;;;;;;2.33;0.80;;;21.80;41.30;;;;;;5115229;28;20429;-59
2024/01/22 10:11:44;;;;;;;1.77;0.73;;;21.80;41.10;;;;;;5116939;28;20042;-56
2024/01/22 10:14:10;;;;;;;2.30;0.70;;;21.90;41.10;;;;;;5117351;28;20084;-58
2024/01/22 10:16:36;;;;;;;3.25;0.77;;;21.90;41.00;;;;;;5116780;28;20034;-58
2024/01/22 10:19:10;;;;;;;1.95;0.80;;;21.90;40.90;;;;;;5115135;28;20035;-57
2024/01/22 10:21:37;;;;;;;2.25;0.90;;;21.90;40.80;;;;;;5116937;28;20127;-59
2024/01/22 10:24:08;;;;;;;1.95;0.77;;;21.90;40.70;;;;;;5097557;28;20043;-59
2024/01/22 10:26:35;;;;;;;1.67;0.60;;;21.90;40.60;;;;;;5116813;28;20043;-56
2024/01/22 10:29:23;;;;;;;2.83;0.90;;;21.90;40.60;;;;;;5116510;28;20023;-56
2024/01/22 10:31:59;;;;;;;2.35;0.70;;;21.90;40.50;;;;;;5115436;28;20027;-58
2024/01/22 10:34:29;;;;;;;2.97;0.90;;;21.90;40.50;;;;;;5114628;28;20084;-58
2024/01/22 10:37:09;;;;;;;2.58;0.80;;;21.90;40.50;;;;;;5098974;28;20393;-57
2024/01/22 10:39:37;;;;;;;2.58;0.80;;;21.90;40.40;;;;;;5116278;28;20473;-56
2024/01/22 10:42:14;;;;;;;2.03;0.90;;;21.90;40.40;;;;;;5115585;28;20039;-59
2024/01/22 10:44:47;;;;;;;2.47;0.77;;;21.90;40.40;;;;;;5115050;28;20405;-56
2024/01/22 10:47:14;;;;;;;2.40;0.82;;;21.90;40.40;;;;;;5116602;28;20035;-57
2024/01/22 10:49:45;;;;;;;1.95;0.70;;;21.90;40.40;;;;;;5098342;28;20085;-57
2024/01/22 10:52:11;;;;;;;1.95;0.73;;;21.90;40.40;;;;;;5098096;28;20340;-58
2024/01/22 10:54:38;;;;;;;2.30;0.80;;;21.90;40.40;;;;;;5113364;28;20027;-56
2024/01/22 10:57:39;;;;;;;2.55;0.98;;;21.80;40.30;;;;;;5116105;28;20032;-56
2024/01/22 11:00:09;;;;;;;2.75;1.00;;;21.80;40.30;;;;;;5116161;28;20074;-56
2024/01/22 11:02:39;;;;;;;2.30;0.90;;;21.80;40.30;;;;;;5116062;28;20070;-56
2024/01/22 11:05:12;;;;;;;2.05;0.95;;;21.80;40.40;;;;;;5115205;28;20035;-57
2024/01/22 11:07:39;;;;;;;2.15;0.80;;;21.80;40.40;;;;;;5097765;28;20102;-57
2024/01/22 11:10:09;;;;;;;3.25;0.90;;;21.70;40.30;;;;;;5097442;28;20024;-55
2024/01/22 11:12:44;;;;;;;3.05;0.90;;;21.70;40.30;;;;;;5115956;28;20051;-55
2024/01/22 11:15:10;;;;;;;1.63;0.70;;;21.70;40.30;;;;;;5114278;28;20068;-56
2024/01/22 11:17:36;;;;;;;2.30;1.00;;;21.70;40.40;;;;;;5097259;28;20023;-57
2024/01/22 11:20:19;;;;;;;2.75;0.80;;;21.70;40.40;;;;;;5115795;28;20039;-58
2024/01/22 11:23:01;;;;;;;2.70;0.90;;;21.60;40.30;;;;;;5115556;28;20032;-57
2024/01/22 11:25:28;;;;;;;2.95;1.00;;;21.60;40.30;;;;;;5111271;28;20047;-57
2024/01/22 11:28:03;;;;;;;4.20;1.20;;;21.60;40.30;;;;;;5115242;28;20023;-55
2024/01/22 11:30:33;;;;;;;4.03;1.17;;;21.60;40.30;;;;;;5112751;28;20355;-55
2024/01/22 11:32:58;;;;;;;2.33;0.93;;;21.60;40.30;;;;;;5115115;28;20024;-57
2024/01/22 11:35:39;;;;;;;3.83;1.10;;;21.60;40.30;;;;;;5097195;28;20034;-56
2024/01/22 11:38:09;;;;;;;3.58;1.10;;;21.50;40.20;;;;;;5114756;28;20027;-55
2024/01/22 11:40:53;;;;;;;5.47;1.60;;;21.50;40.20;;;;;;5112527;28;20051;-55
2024/01/22 11:43:23;;;;;;;3.07;1.27;;;21.50;40.20;;;;;;5114740;28;20365;-55
2024/01/22 11:45:56;;;;;;;3.30;1.27;;;21.50;40.20;;;;;;5111745;28;20340;-56
2024/01/22 11:48:23;;;;;;;5.13;1.77;;;21.50;40.20;;;;;;5114644;28;20399;-57
2024/01/22 11:51:00;;;;;;;3.78;1.38;;;21.50;40.20;;;;;;5111070;28;20457;-57
2024/01/22 11:53:27;;;;;;;2.25;0.90;;;21.50;40.10;;;;;;5097490;28;20340;-57
2024/01/22 11:55:58;;;;;;;3.67;1.17;;;21.50;40.20;;;;;;5114797;28;20084;-56
2024/01/22 11:58:24;;;;;;;3.78;1.30;;;21.50;40.10;;;;;;5106992;28;20089;-58
2024/01/22 12:00:52;;;;;;;3.28;1.00;;;21.50;40.20;;;;;;5114375;28;20028;-55
2024/01/22 12:03:31;;;;;;;4.32;1.17;;;21.50;40.40;;;;;;5112094;28;20042;-54
2024/01/22 12:06:08;;;;;;;5.10;1.55;;;21.50;40.10;;;;;;5112831;28;20362;-57
2024/01/22 12:08:39;;;;;;;2.60;1.33;;;21.50;40.10;;;;;;5124347;27;20128;-55
2024/01/22 12:11:07;;;;;;;3.15;1.35;;;21.40;40.00;;;;;;5114920;27;20088;-57
2024/01/22 12:13:33;;;;;;;3.00;1.00;;;21.50;40.10;;;;;;5114608;28;20359;-62
2024/01/22 12:15:59;;;;;;;3.42;1.10;;;21.40;40.00;;;;;;5113661;28;20020;-57
2024/01/22 12:18:25;;;;;;;4.13;1.48;;;21.50;40.00;;;;;;5114618;28;20031;-58
2024/01/22 12:20:52;;;;;;;4.40;1.35;;;21.50;40.00;;;;;;5114382;28;20088;-57
2024/01/22 12:23:32;;;;;;;4.38;1.20;;;21.40;39.90;;;;;;5096342;28;20399;-59
2024/01/22 12:25:59;;;;;;;5.53;1.70;;;21.40;39.90;;;;;;5114094;28;20078;-59
2024/01/22 12:28:26;;;;;;;3.65;1.50;;;21.40;39.90;;;;;;5114806;28;20028;-58
2024/01/22 12:31:02;;;;;;;5.10;1.45;;;21.40;39.90;;;;;;5114131;28;20668;-60
2024/01/22 12:33:30;;;;;;;4.80;1.52;;;21.40;39.80;;;;;;5113061;28;20039;-59
2024/01/22 12:36:10;;;;;;;6.97;1.80;;;21.40;39.80;;;;;;5113892;28;20093;-56
2024/01/22 12:38:51;;;;;;;4.55;1.60;;;21.40;39.70;;;;;;5113844;28;20462;-59
2024/01/22 12:41:18;;;;;;;3.22;1.10;;;21.40;39.70;;;;;;5113711;28;20046;-55
2024/01/22 12:43:46;;;;;;;3.10;1.40;;;21.40;39.70;;;;;;5113833;28;20315;-55
2024/01/22 12:46:15;;;;;;;6.50;2.15;;;21.40;39.70;;;;;;5113668;28;20039;-57
2024/01/22 12:48:44;;;;;;;6.43;2.08;;;21.30;39.60;;;;;;5113330;28;20043;-54